createdAt,value
2022-11-15T00:00:59.011Z,87.00
2022-11-15T00:03:27.940Z,86.91
2022-11-15T00:05:54.497Z,87.39
2022-11-15T00:08:21.132Z,87.93
2022-11-15T00:11:00.905Z,87.66
2022-11-15T00:13:28.516Z,87.68
2022-11-15T00:15:59.055Z,87.69
2022-11-15T00:18:25.883Z,87.92
2022-11-15T00:20:52.231Z,87.75
2022-11-15T00:23:18.875Z,88.26
2022-11-15T00:25:45.339Z,88.41
2022-11-15T00:28:11.676Z,88.53
2022-11-15T00:30:38.131Z,88.35
2022-11-15T00:33:05.718Z,88.37
2022-11-15T00:35:34.293Z,88.58
2022-11-15T00:38:01.717Z,88.79
2022-11-15T00:40:28.184Z,89.39
2022-11-15T00:42:58.253Z,89.54
2022-11-15T00:45:25.124Z,89.73
2022-11-15T00:47:54.382Z,89.50
2022-11-15T00:50:20.786Z,90.11
2022-11-15T00:52:47.265Z,90.06
2022-11-15T00:55:17.925Z,90.63
2022-11-15T00:57:44.753Z,90.96
2022-11-15T01:00:11.560Z,90.89
2022-11-15T01:02:40.809Z,90.95
2022-11-15T01:05:07.903Z,91.26
2022-11-15T01:07:34.489Z,91.29
2022-11-15T01:10:01.024Z,91.57
2022-11-15T01:12:27.567Z,91.33
2022-11-15T01:14:53.944Z,91.79
2022-11-15T01:17:20.628Z,91.63
2022-11-15T01:19:47.028Z,91.53
2022-11-15T01:22:13.440Z,91.81
2022-11-15T01:24:39.995Z,91.90
2022-11-15T01:27:06.660Z,92.06
2022-11-15T01:29:33.061Z,91.82
2022-11-15T01:31:59.446Z,92.37
2022-11-15T01:34:28.364Z,92.46
2022-11-15T01:36:54.709Z,93.03
2022-11-15T01:39:21.111Z,92.65
2022-11-15T01:41:47.564Z,92.76
2022-11-15T01:44:43.155Z,92.75
2022-11-15T01:47:23.700Z,93.21
2022-11-15T01:49:55.711Z,93.85
2022-11-15T01:52:25.728Z,93.38
2022-11-15T01:54:59.818Z,93.70
2022-11-15T01:57:26.215Z,93.60
2022-11-15T01:59:52.674Z,93.22
2022-11-15T02:02:19.100Z,93.17
2022-11-15T02:04:48.925Z,93.26
2022-11-15T02:07:22.618Z,93.50
2022-11-15T02:09:50.083Z,93.92
2022-11-15T02:12:20.487Z,94.36
2022-11-15T02:14:53.372Z,94.42
2022-11-15T02:17:44.336Z,94.40
2022-11-15T02:20:35.367Z,95.01
2022-11-15T02:23:22.359Z,94.92
2022-11-15T02:26:03.694Z,94.74
2022-11-15T02:28:45.468Z,94.73
2022-11-15T02:31:29.285Z,94.98
2022-11-15T02:34:13.880Z,94.80
2022-11-15T02:37:11.062Z,95.14
2022-11-15T02:39:49.312Z,95.27
2022-11-15T02:42:46.741Z,95.40
2022-11-15T02:45:20.311Z,96.00
2022-11-15T02:47:50.621Z,96.05
2022-11-15T02:50:23.319Z,96.15
2022-11-15T02:52:50.515Z,95.88
2022-11-15T02:55:49.405Z,96.26
2022-11-15T02:58:43.255Z,96.59
2022-11-15T03:01:12.569Z,96.19
2022-11-15T03:04:01.432Z,96.31
2022-11-15T03:06:53.745Z,96.65
2022-11-15T03:09:34.308Z,96.47
2022-11-15T03:12:08.129Z,96.39
2022-11-15T03:14:49.509Z,96.75
2022-11-15T03:17:28.805Z,96.83
2022-11-15T03:19:57.923Z,96.56
2022-11-15T03:22:28.884Z,96.79
2022-11-15T03:24:59.800Z,96.64
2022-11-15T03:27:32.685Z,97.10
2022-11-15T03:30:02.026Z,96.89
2022-11-15T03:32:35.229Z,96.84
2022-11-15T03:35:05.686Z,97.13
2022-11-15T03:37:43.610Z,97.33
2022-11-15T03:40:11.024Z,97.21
2022-11-15T03:42:48.528Z,97.48
2022-11-15T03:45:24.203Z,97.46
2022-11-15T03:47:59.215Z,97.41
2022-11-15T03:50:26.854Z,97.22
2022-11-15T03:53:06.629Z,97.52
2022-11-15T03:55:33.979Z,97.76
2022-11-15T03:58:01.852Z,97.70
2022-11-15T04:00:29.390Z,97.68
2022-11-15T04:02:55.872Z,97.71
2022-11-15T04:05:22.357Z,97.90
2022-11-15T04:07:48.728Z,97.77
2022-11-15T04:10:15.745Z,97.78
2022-11-15T04:12:48.142Z,98.07
2022-11-15T04:15:17.469Z,98.07
2022-11-15T04:17:46.631Z,98.01
2022-11-15T04:20:42.963Z,98.31
2022-11-15T04:23:35.802Z,98.00
2022-11-15T04:26:05.273Z,98.34
2022-11-15T04:28:31.866Z,98.40
2022-11-15T04:30:58.276Z,98.15
2022-11-15T04:33:24.631Z,98.40
2022-11-15T04:36:10.020Z,98.29
2022-11-15T04:38:41.874Z,98.32
2022-11-15T04:41:08.194Z,98.61
2022-11-15T04:43:34.858Z,98.36
2022-11-15T04:46:01.412Z,98.32
2022-11-15T04:48:27.791Z,98.28
2022-11-15T04:50:54.211Z,98.59
2022-11-15T04:53:20.806Z,98.11
2022-11-15T04:55:52.129Z,98.26
2022-11-15T04:58:18.548Z,98.34
2022-11-15T05:00:44.943Z,98.25
2022-11-15T05:03:30.050Z,98.38
2022-11-15T05:05:57.937Z,98.35
2022-11-15T05:08:24.400Z,98.55
2022-11-15T05:10:50.765Z,98.52
2022-11-15T05:13:17.927Z,98.40
2022-11-15T05:15:55.339Z,98.08
2022-11-15T05:18:23.739Z,98.21
2022-11-15T05:20:50.666Z,98.17
2022-11-15T05:23:17.069Z,98.38
2022-11-15T05:25:43.548Z,98.76
2022-11-15T05:28:09.972Z,98.63
2022-11-15T05:30:36.388Z,98.76
2022-11-15T05:33:02.935Z,99.02
2022-11-15T05:35:39.642Z,98.84
2022-11-15T05:38:06.291Z,98.86
2022-11-15T05:40:33.943Z,98.75
2022-11-15T05:43:02.470Z,98.89
2022-11-15T05:45:29.803Z,99.08
2022-11-15T05:47:59.969Z,98.73
2022-11-15T05:50:26.814Z,99.10
2022-11-15T05:52:53.345Z,99.25
2022-11-15T05:55:19.927Z,99.05
2022-11-15T05:57:48.244Z,98.91
2022-11-15T06:00:14.801Z,98.89
2022-11-15T06:02:41.157Z,98.80
2022-11-15T06:05:07.534Z,98.77
2022-11-15T06:07:33.963Z,98.96
2022-11-15T06:10:00.360Z,99.05
2022-11-15T06:12:26.692Z,98.84
2022-11-15T06:14:52.996Z,98.82
2022-11-15T06:17:19.338Z,98.88
2022-11-15T06:19:45.712Z,98.59
2022-11-15T06:22:12.044Z,98.68
2022-11-15T06:24:38.377Z,98.84
2022-11-15T06:27:04.728Z,98.49
2022-11-15T06:29:31.138Z,98.57
2022-11-15T06:31:57.607Z,98.87
2022-11-15T06:34:23.984Z,98.79
2022-11-15T06:36:50.306Z,98.45
2022-11-15T06:39:17.048Z,98.83
2022-11-15T06:41:43.390Z,98.57
2022-11-15T06:44:10.067Z,98.32
2022-11-15T06:46:36.469Z,98.34
2022-11-15T06:49:06.761Z,98.32
2022-11-15T06:51:35.837Z,98.11
2022-11-15T06:54:02.286Z,98.18
2022-11-15T06:56:31.916Z,98.33
2022-11-15T06:58:58.320Z,98.31
2022-11-15T07:01:27.091Z,98.22
2022-11-15T07:03:53.552Z,98.17
2022-11-15T07:06:19.981Z,98.02
2022-11-15T07:08:46.611Z,97.99
2022-11-15T07:11:13.004Z,97.79
2022-11-15T07:13:39.382Z,97.92
2022-11-15T07:16:08.323Z,97.58
2022-11-15T07:18:39.946Z,97.83
2022-11-15T07:21:09.120Z,97.97
2022-11-15T07:23:39.222Z,98.26
2022-11-15T07:26:06.173Z,97.91
2022-11-15T07:28:32.822Z,97.93
2022-11-15T07:31:02.356Z,98.24
2022-11-15T07:33:28.986Z,97.89
2022-11-15T07:35:59.809Z,97.43
2022-11-15T07:38:26.191Z,97.74
2022-11-15T07:41:00.632Z,97.49
2022-11-15T07:43:28.917Z,97.26
2022-11-15T07:45:59.077Z,97.47
2022-11-15T07:48:27.346Z,97.58
2022-11-15T07:50:58.445Z,97.26
2022-11-15T07:53:24.772Z,97.30
2022-11-15T07:55:51.257Z,97.46
2022-11-15T07:58:18.683Z,97.37
2022-11-15T08:00:45.176Z,97.18
2022-11-15T08:03:14.220Z,97.20
2022-11-15T08:05:42.193Z,97.06
2022-11-15T08:08:10.609Z,96.72
2022-11-15T08:10:40.587Z,96.53
2022-11-15T08:13:09.728Z,96.46
2022-11-15T08:15:37.364Z,96.24
2022-11-15T08:18:15.687Z,96.53
2022-11-15T08:20:43.130Z,96.41
2022-11-15T08:23:14.024Z,96.20
2022-11-15T08:25:40.541Z,96.25
2022-11-15T08:28:08.654Z,96.25
2022-11-15T08:30:37.555Z,96.41
2022-11-15T08:33:04.387Z,96.02
2022-11-15T08:35:30.718Z,96.13
2022-11-15T08:37:57.162Z,96.37
2022-11-15T08:40:25.124Z,95.99
2022-11-15T08:42:51.557Z,96.22
2022-11-15T08:45:17.922Z,96.21
2022-11-15T08:47:48.547Z,96.03
2022-11-15T08:50:19.578Z,95.96
2022-11-15T08:52:45.972Z,95.83
2022-11-15T08:55:12.348Z,95.68
2022-11-15T08:57:40.775Z,94.84
2022-11-15T09:00:07.828Z,95.37
2022-11-15T09:02:34.158Z,94.96
2022-11-15T09:05:00.594Z,94.73
2022-11-15T09:07:27.182Z,94.21
2022-11-15T09:09:53.538Z,94.05
2022-11-15T09:12:19.982Z,93.98
2022-11-15T09:14:46.335Z,93.58
2022-11-15T09:17:12.709Z,93.35
2022-11-15T09:19:39.406Z,92.76
2022-11-15T09:22:09.579Z,92.47
2022-11-15T09:24:36.329Z,91.89
2022-11-15T09:27:02.864Z,90.99
2022-11-15T09:29:29.218Z,90.17
2022-11-15T09:31:55.669Z,89.25
2022-11-15T09:34:22.066Z,88.57
2022-11-15T09:36:48.390Z,89.30
2022-11-15T09:39:14.857Z,88.25
2022-11-15T09:41:53.065Z,88.53
2022-11-15T09:44:50.541Z,87.51
2022-11-15T09:47:50.476Z,84.69
2022-11-15T09:50:28.006Z,82.73
2022-11-15T09:52:56.101Z,81.25
2022-11-15T09:55:36.203Z,80.32
2022-11-15T09:58:16.675Z,77.88
2022-11-15T10:00:49.502Z,76.19
2022-11-15T10:03:23.705Z,74.40
2022-11-15T10:05:55.407Z,72.86
2022-11-15T10:08:32.205Z,73.47
2022-11-15T10:11:37.858Z,72.15
2022-11-15T10:14:23.020Z,70.66
2022-11-15T10:17:15.071Z,69.42
2022-11-15T10:20:00.794Z,68.39
2022-11-15T10:22:33.280Z,69.00
2022-11-15T10:25:25.426Z,66.60
2022-11-15T10:27:55.085Z,67.59
2022-11-15T10:30:22.355Z,67.77
2022-11-15T10:32:50.427Z,67.52
2022-11-15T10:35:23.518Z,67.98
2022-11-15T10:37:50.079Z,67.50
2022-11-15T10:40:23.004Z,64.67
2022-11-15T10:43:06.506Z,63.51
2022-11-15T10:45:36.666Z,63.32
2022-11-15T10:48:14.987Z,62.67
2022-11-15T10:50:44.111Z,64.29
2022-11-15T10:53:23.649Z,62.93
2022-11-15T10:55:53.529Z,60.73
2022-11-15T10:58:35.669Z,59.47
2022-11-15T11:01:17.777Z,58.21
2022-11-15T11:03:46.827Z,56.96
2022-11-15T11:06:19.037Z,54.63
2022-11-15T11:09:05.523Z,52.81
2022-11-15T11:11:51.521Z,53.55
2022-11-15T11:14:24.356Z,52.47
2022-11-15T11:16:55.730Z,52.52
2022-11-15T11:20:04.676Z,50.82
2022-11-15T11:23:11.314Z,48.43
2022-11-15T11:25:55.630Z,47.48
2022-11-15T11:28:49.575Z,46.75
2022-11-15T11:32:11.576Z,47.78
2022-11-15T11:34:56.348Z,48.36
2022-11-15T11:37:44.415Z,50.64
2022-11-15T11:40:33.338Z,51.39
2022-11-15T11:43:14.397Z,51.29
2022-11-15T11:45:53.025Z,51.00
2022-11-15T11:48:37.834Z,50.52
2022-11-15T11:51:13.296Z,50.11
2022-11-15T11:53:58.708Z,51.05
2022-11-15T11:56:33.296Z,50.83
2022-11-15T11:59:07.820Z,50.53
2022-11-15T12:01:40.498Z,50.68
2022-11-15T12:04:16.077Z,50.69
2022-11-15T12:06:58.760Z,50.60
2022-11-15T12:09:43.362Z,51.10
2022-11-15T12:12:49.539Z,50.75
2022-11-15T12:15:24.859Z,50.44
2022-11-15T12:17:51.413Z,50.30
2022-11-15T12:20:20.134Z,50.79
2022-11-15T12:22:55.854Z,50.88
2022-11-15T12:25:25.780Z,50.82
2022-11-15T12:28:02.788Z,50.64
2022-11-15T12:30:46.622Z,50.52
2022-11-15T12:33:32.930Z,50.87
2022-11-15T12:36:11.037Z,51.59
2022-11-15T12:38:52.466Z,51.86
2022-11-15T12:41:20.759Z,51.36
2022-11-15T12:43:49.038Z,51.40
2022-11-15T12:46:29.558Z,51.18
2022-11-15T12:49:32.153Z,51.29
2022-11-15T12:51:58.608Z,50.75
2022-11-15T12:54:30.188Z,50.44
2022-11-15T12:57:08.691Z,50.56
2022-11-15T13:00:02.820Z,50.15
2022-11-15T13:02:32.129Z,48.89
2022-11-15T13:05:17.108Z,48.08
2022-11-15T13:07:43.711Z,48.46
2022-11-15T13:10:13.286Z,48.97
2022-11-15T13:12:41.818Z,49.11
2022-11-15T13:15:14.322Z,49.61
2022-11-15T13:17:48.825Z,50.01
2022-11-15T13:20:15.353Z,50.20
2022-11-15T13:22:51.956Z,50.60
2022-11-15T13:25:53.946Z,51.01
2022-11-15T13:28:33.055Z,50.86
2022-11-15T13:31:24.331Z,51.67
2022-11-15T13:33:51.428Z,51.95
2022-11-15T13:36:28.338Z,52.72
2022-11-15T13:39:00.281Z,53.30
2022-11-15T13:41:30.266Z,53.82
2022-11-15T13:43:58.063Z,54.22
2022-11-15T13:46:26.882Z,54.44
2022-11-15T13:48:56.697Z,54.89
2022-11-15T13:51:38.985Z,55.37
2022-11-15T13:54:17.823Z,55.82
2022-11-15T13:56:58.267Z,56.40
2022-11-15T13:59:29.931Z,57.06
2022-11-15T14:01:58.460Z,57.33
2022-11-15T14:04:27.334Z,57.53
2022-11-15T14:06:58.400Z,57.71
2022-11-15T14:09:34.631Z,57.99
2022-11-15T14:12:03.219Z,57.86
2022-11-15T14:14:30.728Z,58.68
2022-11-15T14:17:00.102Z,58.68
2022-11-15T14:19:26.552Z,59.53
2022-11-15T14:22:16.401Z,59.73
2022-11-15T14:25:03.012Z,59.58
2022-11-15T14:27:30.107Z,59.77
2022-11-15T14:29:56.558Z,60.34
2022-11-15T14:32:26.724Z,60.32
2022-11-15T14:34:59.814Z,60.50
2022-11-15T14:37:27.357Z,60.51
2022-11-15T14:39:56.831Z,60.55
2022-11-15T14:42:24.044Z,60.78
2022-11-15T14:44:51.181Z,60.98
2022-11-15T14:47:18.085Z,60.84
2022-11-15T14:49:45.006Z,60.82
2022-11-15T14:52:31.579Z,61.23
2022-11-15T14:55:00.040Z,61.10
2022-11-15T14:57:26.517Z,61.00
2022-11-15T14:59:53.894Z,60.96
2022-11-15T15:02:29.201Z,60.68
2022-11-15T15:04:55.648Z,60.58
2022-11-15T15:07:23.035Z,60.92
2022-11-15T15:09:49.593Z,61.31
2022-11-15T15:12:20.448Z,61.25
2022-11-15T15:14:48.087Z,61.14
2022-11-15T15:17:15.368Z,61.07
2022-11-15T15:19:42.408Z,60.80
2022-11-15T15:22:30.218Z,60.55
2022-11-15T15:24:56.624Z,60.56
2022-11-15T15:27:22.953Z,60.39
2022-11-15T15:29:49.427Z,60.39
2022-11-15T15:32:15.861Z,60.41
2022-11-15T15:34:42.255Z,60.31
2022-11-15T15:37:09.705Z,60.13
2022-11-15T15:39:36.061Z,60.47
2022-11-15T15:42:04.836Z,59.83
2022-11-15T15:44:51.935Z,59.87
2022-11-15T15:47:32.432Z,59.82
2022-11-15T15:51:09.123Z,59.40
2022-11-15T15:54:08.707Z,59.21
2022-11-15T15:59:58.668Z,58.99
2022-11-15T16:02:36.290Z,58.97
2022-11-15T16:05:21.143Z,58.75
2022-11-15T16:08:05.885Z,58.79
2022-11-15T16:10:35.404Z,58.85
2022-11-15T16:13:01.978Z,58.39
2022-11-15T16:15:31.583Z,58.15
2022-11-15T16:18:00.269Z,58.00
2022-11-15T16:20:38.037Z,58.14
2022-11-15T16:23:09.405Z,58.16
2022-11-15T16:25:50.688Z,58.30
2022-11-15T16:28:22.493Z,58.33
2022-11-15T16:30:55.530Z,58.39
2022-11-15T16:33:23.192Z,57.93
2022-11-15T16:35:49.550Z,57.99
2022-11-15T16:38:16.581Z,57.88
2022-11-15T16:40:43.379Z,57.77
2022-11-15T16:43:11.490Z,57.80
2022-11-15T16:45:38.182Z,57.60
2022-11-15T16:48:04.867Z,57.60
2022-11-15T16:50:35.054Z,58.09
2022-11-15T16:53:01.905Z,57.81
2022-11-15T16:55:29.519Z,58.44
2022-11-15T16:57:58.076Z,58.66
2022-11-15T17:00:25.529Z,59.13
2022-11-15T17:02:52.519Z,59.65
2022-11-15T17:05:21.705Z,60.58
2022-11-15T17:07:50.443Z,60.91
2022-11-15T17:10:17.246Z,61.60
2022-11-15T17:12:43.652Z,62.13
2022-11-15T17:15:12.870Z,62.79
2022-11-15T17:17:40.406Z,63.56
2022-11-15T17:20:13.839Z,64.57
2022-11-15T17:22:40.228Z,65.75
2022-11-15T17:25:07.077Z,67.03
2022-11-15T17:27:33.407Z,69.22
2022-11-15T17:29:59.803Z,70.22
2022-11-15T17:32:26.258Z,71.68
2022-11-15T17:34:52.631Z,72.65
2022-11-15T17:37:21.839Z,74.41
2022-11-15T17:39:48.223Z,75.70
2022-11-15T17:42:14.584Z,77.53
2022-11-15T17:44:41.101Z,78.55
2022-11-15T17:47:08.443Z,78.54
2022-11-15T17:49:39.273Z,80.12
2022-11-15T17:52:05.793Z,80.89
2022-11-15T17:54:32.125Z,81.30
2022-11-15T17:56:58.481Z,81.64
2022-11-15T17:59:24.855Z,84.28
2022-11-15T18:01:51.442Z,84.83
2022-11-15T18:04:17.904Z,84.67
2022-11-15T18:06:44.369Z,85.49
2022-11-15T18:09:10.933Z,86.38
2022-11-15T18:11:40.934Z,86.98
2022-11-15T18:14:12.635Z,86.99
2022-11-15T18:16:40.218Z,87.15
2022-11-15T18:19:11.437Z,87.49
2022-11-15T18:21:56.002Z,87.71
2022-11-15T18:24:30.518Z,87.82
2022-11-15T18:26:58.667Z,87.92
2022-11-15T18:29:25.720Z,88.58
2022-11-15T18:31:56.371Z,89.05
2022-11-15T18:34:33.784Z,89.56
2022-11-15T18:37:02.962Z,89.84
2022-11-15T18:39:30.152Z,89.50
2022-11-15T18:41:56.776Z,90.21
2022-11-15T18:44:23.309Z,90.22
2022-11-15T18:46:50.959Z,90.46
2022-11-15T18:49:17.893Z,90.61
2022-11-15T18:51:44.347Z,90.93
2022-11-15T18:54:13.913Z,91.21
2022-11-15T18:56:40.887Z,91.13
2022-11-15T18:59:08.627Z,91.16
2022-11-15T19:01:37.932Z,91.38
2022-11-15T19:04:12.896Z,91.45
2022-11-15T19:06:43.895Z,91.37
2022-11-15T19:09:12.235Z,91.55
2022-11-15T19:11:39.955Z,91.54
2022-11-15T19:14:07.528Z,91.94
2022-11-15T19:16:39.192Z,91.92
2022-11-15T19:19:07.821Z,92.16
2022-11-15T19:21:34.950Z,92.24
2022-11-15T19:24:01.872Z,92.24
2022-11-15T19:26:29.216Z,92.32
2022-11-15T19:28:59.324Z,92.32
2022-11-15T19:31:28.171Z,92.59
2022-11-15T19:33:55.556Z,92.70
2022-11-15T19:36:32.570Z,92.85
2022-11-15T19:39:04.929Z,92.77
2022-11-15T19:41:31.448Z,92.98
2022-11-15T19:43:57.965Z,93.77
2022-11-15T19:46:24.603Z,93.51
2022-11-15T19:48:51.716Z,93.68
2022-11-15T19:51:23.782Z,93.80
2022-11-15T19:53:52.466Z,93.76
2022-11-15T19:56:19.865Z,94.25
2022-11-15T19:58:46.945Z,94.27
2022-11-15T20:01:23.454Z,94.27
2022-11-15T20:03:53.524Z,94.31
2022-11-15T20:06:25.478Z,94.41
2022-11-15T20:08:52.767Z,94.29
2022-11-15T20:11:19.703Z,94.55
2022-11-15T20:13:46.252Z,94.53
2022-11-15T20:16:20.907Z,94.78
2022-11-15T20:18:50.069Z,94.94
2022-11-15T20:21:17.343Z,95.20
2022-11-15T20:23:44.270Z,95.40
2022-11-15T20:26:11.425Z,95.44
2022-11-15T20:28:39.100Z,95.79
2022-11-15T20:31:06.324Z,96.73
2022-11-15T20:33:33.138Z,97.83
2022-11-15T20:36:04.331Z,98.06
2022-11-15T20:38:30.988Z,98.13
2022-11-15T20:41:00.341Z,98.33
2022-11-15T20:43:27.164Z,97.79
2022-11-15T20:45:53.567Z,97.54
2022-11-15T20:48:20.070Z,97.52
2022-11-15T20:50:47.303Z,96.85
2022-11-15T20:53:16.365Z,96.81
2022-11-15T20:55:47.549Z,96.86
2022-11-15T20:58:15.069Z,96.63
2022-11-15T21:00:43.084Z,96.16
2022-11-15T21:03:09.809Z,96.34
2022-11-15T21:05:41.109Z,96.31
2022-11-15T21:08:09.156Z,96.22
2022-11-15T21:10:53.927Z,96.32
2022-11-15T21:13:22.942Z,96.54
2022-11-15T21:15:49.493Z,96.54
2022-11-15T21:18:16.363Z,96.48
2022-11-15T21:20:43.050Z,96.58
2022-11-15T21:23:09.501Z,96.25
2022-11-15T21:25:35.869Z,96.69
2022-11-15T21:28:02.891Z,96.81
2022-11-15T21:30:29.672Z,96.58
2022-11-15T21:32:56.097Z,96.67
2022-11-15T21:35:23.689Z,96.59
2022-11-15T21:37:56.179Z,96.37
2022-11-15T21:40:23.479Z,96.49
2022-11-15T21:42:49.841Z,96.62
2022-11-15T21:45:16.563Z,96.71
2022-11-15T21:47:46.045Z,96.86
2022-11-15T21:50:13.065Z,96.65
2022-11-15T21:52:41.738Z,96.65
2022-11-15T21:55:09.059Z,96.74
2022-11-15T21:57:35.451Z,96.97
2022-11-15T22:00:20.153Z,97.01
2022-11-15T22:02:46.485Z,96.85
2022-11-15T22:05:12.821Z,96.95
2022-11-15T22:07:41.834Z,97.02
2022-11-15T22:10:08.541Z,96.93
2022-11-15T22:12:34.992Z,97.20
2022-11-15T22:15:01.422Z,97.15
2022-11-15T22:17:47.859Z,97.37
2022-11-15T22:20:42.964Z,97.35
2022-11-15T22:23:02.104Z,97.16
2022-11-15T22:25:29.063Z,97.16
2022-11-15T22:27:55.474Z,97.15
2022-11-15T22:30:22.779Z,97.36
2022-11-15T22:32:49.203Z,97.27
2022-11-15T22:35:16.063Z,97.58
2022-11-15T22:37:43.972Z,97.36
2022-11-15T22:40:10.512Z,97.43
2022-11-15T22:42:36.847Z,97.30
2022-11-15T22:45:03.652Z,97.63
2022-11-15T22:47:30.025Z,97.92
2022-11-15T22:49:58.735Z,97.67
2022-11-15T22:52:25.144Z,97.65
2022-11-15T22:54:51.626Z,97.94
2022-11-15T22:57:18.651Z,97.88
2022-11-15T22:59:45.033Z,98.01
2022-11-15T23:02:11.504Z,98.09
2022-11-15T23:04:40.308Z,98.20
2022-11-15T23:07:06.774Z,98.23
2022-11-15T23:09:33.231Z,97.99
2022-11-15T23:12:18.633Z,98.21
2022-11-15T23:14:45.132Z,98.22
2022-11-15T23:17:11.531Z,98.14
2022-11-15T23:19:38.029Z,98.52
2022-11-15T23:22:22.797Z,98.09
2022-11-15T23:24:49.216Z,98.44
2022-11-15T23:27:19.737Z,98.29
2022-11-15T23:30:05.444Z,98.37
2022-11-15T23:32:50.291Z,98.63
2022-11-15T23:35:17.145Z,98.47
2022-11-15T23:37:43.536Z,98.62
2022-11-15T23:40:10.728Z,98.54
2022-11-15T23:42:44.280Z,98.41
2022-11-15T23:45:11.176Z,98.68
2022-11-15T23:47:37.553Z,98.74
2022-11-15T23:50:04.257Z,98.78
2022-11-15T23:52:30.801Z,98.74
2022-11-15T23:54:57.274Z,98.76
2022-11-15T23:57:23.687Z,98.65
2022-11-15T23:59:50.033Z,98.49
